sensor_id;sensor_type;location;lat;lon;timestamp;P1;durP1;ratioP1;P2;durP2;ratioP2
37791;SDS011;29527;55.766;37.570;2024-03-06T00:01:51;6.28;;;2.00;;
37791;SDS011;29527;55.766;37.570;2024-03-06T00:04:16;3.63;;;1.80;;
37791;SDS011;29527;55.766;37.570;2024-03-06T00:06:42;4.60;;;2.38;;
37791;SDS011;29527;55.766;37.570;2024-03-06T00:09:08;3.50;;;1.65;;
37791;SDS011;29527;55.766;37.570;2024-03-06T00:11:33;4.63;;;2.03;;
37791;SDS011;29527;55.766;37.570;2024-03-06T00:14:02;5.55;;;2.13;;
37791;SDS011;29527;55.766;37.570;2024-03-06T00:16:27;5.55;;;2.05;;
37791;SDS011;29527;55.766;37.570;2024-03-06T00:18:52;5.18;;;2.30;;
37791;SDS011;29527;55.766;37.570;2024-03-06T00:21:18;3.30;;;1.75;;
37791;SDS011;29527;55.766;37.570;2024-03-06T00:23:43;3.25;;;1.90;;
37791;SDS011;29527;55.766;37.570;2024-03-06T00:26:11;5.32;;;2.20;;
37791;SDS011;29527;55.766;37.570;2024-03-06T00:28:38;13.20;;;2.00;;
37791;SDS011;29527;55.766;37.570;2024-03-06T00:31:04;3.70;;;2.08;;
37791;SDS011;29527;55.766;37.570;2024-03-06T00:33:30;6.03;;;1.95;;
37791;SDS011;29527;55.766;37.570;2024-03-06T00:35:55;4.07;;;2.00;;
37791;SDS011;29527;55.766;37.570;2024-03-06T00:38:20;4.40;;;1.85;;
37791;SDS011;29527;55.766;37.570;2024-03-06T00:40:46;5.65;;;2.00;;
37791;SDS011;29527;55.766;37.570;2024-03-06T00:43:12;6.32;;;2.58;;
37791;SDS011;29527;55.766;37.570;2024-03-06T00:45:37;4.53;;;2.03;;
37791;SDS011;29527;55.766;37.570;2024-03-06T00:48:02;4.68;;;2.20;;
37791;SDS011;29527;55.766;37.570;2024-03-06T00:50:28;4.50;;;1.90;;
37791;SDS011;29527;55.766;37.570;2024-03-06T00:52:54;4.80;;;2.40;;
37791;SDS011;29527;55.766;37.570;2024-03-06T00:55:19;4.68;;;1.77;;
37791;SDS011;29527;55.766;37.570;2024-03-06T00:57:45;4.28;;;1.83;;
37791;SDS011;29527;55.766;37.570;2024-03-06T01:00:10;4.50;;;2.20;;
37791;SDS011;29527;55.766;37.570;2024-03-06T01:02:36;5.00;;;2.38;;
37791;SDS011;29527;55.766;37.570;2024-03-06T01:05:02;3.53;;;1.90;;
37791;SDS011;29527;55.766;37.570;2024-03-06T01:07:29;5.93;;;2.22;;
37791;SDS011;29527;55.766;37.570;2024-03-06T01:09:55;3.15;;;1.90;;
37791;SDS011;29527;55.766;37.570;2024-03-06T01:12:22;3.78;;;1.85;;
37791;SDS011;29527;55.766;37.570;2024-03-06T01:14:48;4.53;;;2.00;;
37791;SDS011;29527;55.766;37.570;2024-03-06T01:17:13;7.88;;;1.95;;
37791;SDS011;29527;55.766;37.570;2024-03-06T01:19:38;5.75;;;2.10;;
37791;SDS011;29527;55.766;37.570;2024-03-06T01:22:04;5.68;;;1.90;;
37791;SDS011;29527;55.766;37.570;2024-03-06T01:24:29;6.75;;;1.83;;
37791;SDS011;29527;55.766;37.570;2024-03-06T01:26:55;4.95;;;1.95;;
37791;SDS011;29527;55.766;37.570;2024-03-06T01:29:20;7.00;;;2.05;;
37791;SDS011;29527;55.766;37.570;2024-03-06T01:31:45;5.95;;;1.90;;
37791;SDS011;29527;55.766;37.570;2024-03-06T01:34:12;5.65;;;2.30;;
37791;SDS011;29527;55.766;37.570;2024-03-06T01:36:37;5.22;;;2.38;;
37791;SDS011;29527;55.766;37.570;2024-03-06T01:39:02;5.60;;;2.10;;
37791;SDS011;29527;55.766;37.570;2024-03-06T01:41:28;7.47;;;2.35;;
37791;SDS011;29527;55.766;37.570;2024-03-06T01:43:53;3.85;;;1.95;;
37791;SDS011;29527;55.766;37.570;2024-03-06T01:46:19;4.53;;;1.83;;
37791;SDS011;29527;55.766;37.570;2024-03-06T01:48:44;3.33;;;1.90;;
37791;SDS011;29527;55.766;37.570;2024-03-06T01:51:10;5.50;;;2.03;;
37791;SDS011;29527;55.766;37.570;2024-03-06T01:53:36;4.10;;;1.80;;
37791;SDS011;29527;55.766;37.570;2024-03-06T01:56:02;4.97;;;2.00;;
37791;SDS011;29527;55.766;37.570;2024-03-06T01:58:29;4.70;;;2.28;;
37791;SDS011;29527;55.766;37.570;2024-03-06T02:00:55;3.45;;;1.80;;
37791;SDS011;29527;55.766;37.570;2024-03-06T02:03:21;4.05;;;1.80;;
37791;SDS011;29527;55.766;37.570;2024-03-06T02:05:50;4.90;;;1.92;;
37791;SDS011;29527;55.766;37.570;2024-03-06T02:08:15;4.30;;;1.92;;
37791;SDS011;29527;55.766;37.570;2024-03-06T02:10:41;4.78;;;2.08;;
37791;SDS011;29527;55.766;37.570;2024-03-06T02:13:06;5.75;;;2.10;;
37791;SDS011;29527;55.766;37.570;2024-03-06T02:15:32;5.68;;;2.33;;
37791;SDS011;29527;55.766;37.570;2024-03-06T02:17:58;4.53;;;2.15;;
37791;SDS011;29527;55.766;37.570;2024-03-06T02:20:24;5.72;;;2.22;;
37791;SDS011;29527;55.766;37.570;2024-03-06T02:22:49;5.05;;;2.20;;
37791;SDS011;29527;55.766;37.570;2024-03-06T02:25:15;3.55;;;1.80;;
37791;SDS011;29527;55.766;37.570;2024-03-06T02:27:41;5.82;;;2.17;;
37791;SDS011;29527;55.766;37.570;2024-03-06T02:30:06;5.03;;;2.25;;
37791;SDS011;29527;55.766;37.570;2024-03-06T02:32:31;5.35;;;2.22;;
37791;SDS011;29527;55.766;37.570;2024-03-06T02:34:57;6.13;;;2.25;;
37791;SDS011;29527;55.766;37.570;2024-03-06T02:37:22;6.43;;;2.45;;
37791;SDS011;29527;55.766;37.570;2024-03-06T02:39:49;4.70;;;2.08;;
37791;SDS011;29527;55.766;37.570;2024-03-06T02:42:15;5.47;;;2.42;;
37791;SDS011;29527;55.766;37.570;2024-03-06T02:44:40;6.00;;;2.42;;
37791;SDS011;29527;55.766;37.570;2024-03-06T02:47:05;6.10;;;2.30;;
37791;SDS011;29527;55.766;37.570;2024-03-06T02:49:31;4.40;;;2.40;;
37791;SDS011;29527;55.766;37.570;2024-03-06T02:51:56;6.15;;;2.45;;
37791;SDS011;29527;55.766;37.570;2024-03-06T02:54:26;7.90;;;2.42;;
37791;SDS011;29527;55.766;37.570;2024-03-06T02:56:51;6.18;;;2.50;;
37791;SDS011;29527;55.766;37.570;2024-03-06T02:59:17;5.18;;;2.45;;
37791;SDS011;29527;55.766;37.570;2024-03-06T03:01:42;6.35;;;3.00;;
37791;SDS011;29527;55.766;37.570;2024-03-06T03:04:09;8.63;;;2.78;;
37791;SDS011;29527;55.766;37.570;2024-03-06T03:06:35;7.13;;;2.83;;
37791;SDS011;29527;55.766;37.570;2024-03-06T03:09:00;5.90;;;2.70;;
37791;SDS011;29527;55.766;37.570;2024-03-06T03:11:26;6.18;;;2.28;;
37791;SDS011;29527;55.766;37.570;2024-03-06T03:13:52;6.35;;;2.92;;
37791;SDS011;29527;55.766;37.570;2024-03-06T03:16:18;8.30;;;2.78;;
37791;SDS011;29527;55.766;37.570;2024-03-06T03:18:44;6.10;;;2.53;;
37791;SDS011;29527;55.766;37.570;2024-03-06T03:21:09;6.57;;;2.40;;
37791;SDS011;29527;55.766;37.570;2024-03-06T03:23:37;8.30;;;3.03;;
37791;SDS011;29527;55.766;37.570;2024-03-06T03:26:03;5.07;;;2.88;;
37791;SDS011;29527;55.766;37.570;2024-03-06T03:28:29;5.95;;;2.70;;
37791;SDS011;29527;55.766;37.570;2024-03-06T03:30:55;5.85;;;2.55;;
37791;SDS011;29527;55.766;37.570;2024-03-06T03:33:21;8.35;;;2.80;;
37791;SDS011;29527;55.766;37.570;2024-03-06T03:35:47;6.20;;;2.17;;
37791;SDS011;29527;55.766;37.570;2024-03-06T03:38:12;5.30;;;2.15;;
37791;SDS011;29527;55.766;37.570;2024-03-06T03:40:37;6.88;;;2.40;;
37791;SDS011;29527;55.766;37.570;2024-03-06T03:43:03;6.78;;;2.42;;
37791;SDS011;29527;55.766;37.570;2024-03-06T03:45:35;4.88;;;2.17;;
37791;SDS011;29527;55.766;37.570;2024-03-06T03:48:01;5.25;;;2.28;;
37791;SDS011;29527;55.766;37.570;2024-03-06T03:50:28;6.30;;;2.65;;
37791;SDS011;29527;55.766;37.570;2024-03-06T03:52:55;7.28;;;2.42;;
37791;SDS011;29527;55.766;37.570;2024-03-06T03:55:20;5.78;;;2.50;;
37791;SDS011;29527;55.766;37.570;2024-03-06T03:57:45;5.57;;;2.40;;
37791;SDS011;29527;55.766;37.570;2024-03-06T04:00:11;4.53;;;2.40;;
37791;SDS011;29527;55.766;37.570;2024-03-06T04:02:37;4.10;;;2.38;;
37791;SDS011;29527;55.766;37.570;2024-03-06T04:05:02;5.65;;;2.22;;
37791;SDS011;29527;55.766;37.570;2024-03-06T04:07:29;4.03;;;2.17;;
37791;SDS011;29527;55.766;37.570;2024-03-06T04:09:54;5.45;;;2.65;;
37791;SDS011;29527;55.766;37.570;2024-03-06T04:12:19;6.97;;;2.55;;
37791;SDS011;29527;55.766;37.570;2024-03-06T04:14:45;6.78;;;2.50;;
37791;SDS011;29527;55.766;37.570;2024-03-06T04:17:10;4.50;;;2.30;;
37791;SDS011;29527;55.766;37.570;2024-03-06T04:19:36;5.38;;;2.38;;
37791;SDS011;29527;55.766;37.570;2024-03-06T04:22:01;6.82;;;2.58;;
37791;SDS011;29527;55.766;37.570;2024-03-06T04:24:27;7.80;;;2.75;;
37791;SDS011;29527;55.766;37.570;2024-03-06T04:26:53;5.70;;;2.40;;
37791;SDS011;29527;55.766;37.570;2024-03-06T04:29:18;7.22;;;2.60;;
37791;SDS011;29527;55.766;37.570;2024-03-06T04:31:43;8.23;;;2.97;;
37791;SDS011;29527;55.766;37.570;2024-03-06T04:34:09;8.50;;;2.75;;
37791;SDS011;29527;55.766;37.570;2024-03-06T04:36:34;4.88;;;2.58;;
37791;SDS011;29527;55.766;37.570;2024-03-06T04:38:59;5.47;;;3.33;;
37791;SDS011;29527;55.766;37.570;2024-03-06T04:41:25;8.55;;;3.05;;
37791;SDS011;29527;55.766;37.570;2024-03-06T04:43:51;7.95;;;3.20;;
37791;SDS011;29527;55.766;37.570;2024-03-06T04:46:17;7.30;;;2.67;;
37791;SDS011;29527;55.766;37.570;2024-03-06T04:48:42;7.65;;;3.10;;
37791;SDS011;29527;55.766;37.570;2024-03-06T04:51:08;7.03;;;2.75;;
37791;SDS011;29527;55.766;37.570;2024-03-06T04:53:35;10.05;;;3.20;;
37791;SDS011;29527;55.766;37.570;2024-03-06T04:56:00;7.07;;;2.95;;
37791;SDS011;29527;55.766;37.570;2024-03-06T04:58:26;7.65;;;2.50;;
37791;SDS011;29527;55.766;37.570;2024-03-06T05:00:51;4.32;;;2.47;;
37791;SDS011;29527;55.766;37.570;2024-03-06T05:03:17;7.60;;;3.03;;
37791;SDS011;29527;55.766;37.570;2024-03-06T05:05:42;7.38;;;3.15;;
37791;SDS011;29527;55.766;37.570;2024-03-06T05:08:07;9.23;;;3.60;;
37791;SDS011;29527;55.766;37.570;2024-03-06T05:10:34;8.25;;;2.80;;
37791;SDS011;29527;55.766;37.570;2024-03-06T05:13:00;8.43;;;3.58;;
37791;SDS011;29527;55.766;37.570;2024-03-06T05:15:25;7.15;;;2.80;;
37791;SDS011;29527;55.766;37.570;2024-03-06T05:17:51;8.57;;;2.70;;
37791;SDS011;29527;55.766;37.570;2024-03-06T05:20:16;8.75;;;3.20;;
37791;SDS011;29527;55.766;37.570;2024-03-06T05:22:42;10.30;;;3.38;;
37791;SDS011;29527;55.766;37.570;2024-03-06T05:25:08;9.68;;;3.67;;
37791;SDS011;29527;55.766;37.570;2024-03-06T05:27:34;11.90;;;3.20;;
37791;SDS011;29527;55.766;37.570;2024-03-06T05:29:59;8.85;;;3.20;;
37791;SDS011;29527;55.766;37.570;2024-03-06T05:32:24;7.45;;;3.20;;
37791;SDS011;29527;55.766;37.570;2024-03-06T05:34:50;7.20;;;3.22;;
37791;SDS011;29527;55.766;37.570;2024-03-06T05:37:15;10.48;;;3.25;;
37791;SDS011;29527;55.766;37.570;2024-03-06T05:39:41;6.55;;;3.33;;
37791;SDS011;29527;55.766;37.570;2024-03-06T05:42:07;9.18;;;3.50;;
37791;SDS011;29527;55.766;37.570;2024-03-06T05:44:33;9.32;;;3.58;;
37791;SDS011;29527;55.766;37.570;2024-03-06T05:46:59;16.17;;;4.00;;
37791;SDS011;29527;55.766;37.570;2024-03-06T05:49:25;6.55;;;3.08;;
37791;SDS011;29527;55.766;37.570;2024-03-06T05:51:50;11.60;;;3.33;;
37791;SDS011;29527;55.766;37.570;2024-03-06T05:54:16;10.40;;;3.47;;
37791;SDS011;29527;55.766;37.570;2024-03-06T05:56:42;8.35;;;3.10;;
37791;SDS011;29527;55.766;37.570;2024-03-06T05:59:07;9.70;;;3.30;;
37791;SDS011;29527;55.766;37.570;2024-03-06T06:01:36;9.32;;;3.67;;
37791;SDS011;29527;55.766;37.570;2024-03-06T06:04:01;9.93;;;3.70;;
37791;SDS011;29527;55.766;37.570;2024-03-06T06:06:27;9.00;;;3.40;;
37791;SDS011;29527;55.766;37.570;2024-03-06T06:08:53;6.53;;;3.40;;
37791;SDS011;29527;55.766;37.570;2024-03-06T06:11:18;8.25;;;3.70;;
37791;SDS011;29527;55.766;37.570;2024-03-06T06:13:43;8.85;;;3.78;;
37791;SDS011;29527;55.766;37.570;2024-03-06T06:16:09;7.10;;;3.42;;
37791;SDS011;29527;55.766;37.570;2024-03-06T06:18:34;9.93;;;3.92;;
37791;SDS011;29527;55.766;37.570;2024-03-06T06:21:00;7.95;;;3.38;;
37791;SDS011;29527;55.766;37.570;2024-03-06T06:23:25;8.90;;;3.63;;
37791;SDS011;29527;55.766;37.570;2024-03-06T06:25:51;9.80;;;3.83;;
37791;SDS011;29527;55.766;37.570;2024-03-06T06:28:16;9.45;;;3.58;;
37791;SDS011;29527;55.766;37.570;2024-03-06T06:30:42;13.23;;;4.05;;
37791;SDS011;29527;55.766;37.570;2024-03-06T06:33:07;9.90;;;3.92;;
37791;SDS011;29527;55.766;37.570;2024-03-06T06:35:33;12.13;;;4.00;;
37791;SDS011;29527;55.766;37.570;2024-03-06T06:37:59;15.32;;;4.28;;
37791;SDS011;29527;55.766;37.570;2024-03-06T06:40:25;12.95;;;4.15;;
37791;SDS011;29527;55.766;37.570;2024-03-06T06:42:50;10.90;;;4.22;;
37791;SDS011;29527;55.766;37.570;2024-03-06T06:45:16;15.18;;;4.80;;
37791;SDS011;29527;55.766;37.570;2024-03-06T06:47:42;12.98;;;5.82;;
37791;SDS011;29527;55.766;37.570;2024-03-06T06:50:07;16.20;;;4.90;;
37791;SDS011;29527;55.766;37.570;2024-03-06T06:52:34;13.25;;;5.32;;
37791;SDS011;29527;55.766;37.570;2024-03-06T06:55:00;13.38;;;4.72;;
37791;SDS011;29527;55.766;37.570;2024-03-06T06:57:25;14.93;;;4.57;;
37791;SDS011;29527;55.766;37.570;2024-03-06T06:59:51;13.57;;;4.15;;
37791;SDS011;29527;55.766;37.570;2024-03-06T07:02:18;8.95;;;3.03;;
37791;SDS011;29527;55.766;37.570;2024-03-06T07:04:43;9.60;;;2.85;;
37791;SDS011;29527;55.766;37.570;2024-03-06T07:07:09;5.70;;;3.25;;
37791;SDS011;29527;55.766;37.570;2024-03-06T07:09:34;6.68;;;2.88;;
37791;SDS011;29527;55.766;37.570;2024-03-06T07:12:00;8.60;;;3.33;;
37791;SDS011;29527;55.766;37.570;2024-03-06T07:14:25;9.32;;;3.13;;
37791;SDS011;29527;55.766;37.570;2024-03-06T07:16:50;9.25;;;3.10;;
37791;SDS011;29527;55.766;37.570;2024-03-06T07:19:16;11.02;;;2.80;;
37791;SDS011;29527;55.766;37.570;2024-03-06T07:21:42;9.55;;;3.00;;
37791;SDS011;29527;55.766;37.570;2024-03-06T07:24:07;6.47;;;3.35;;
37791;SDS011;29527;55.766;37.570;2024-03-06T07:26:33;10.65;;;3.80;;
37791;SDS011;29527;55.766;37.570;2024-03-06T07:28:58;19.17;;;7.03;;
37791;SDS011;29527;55.766;37.570;2024-03-06T07:31:24;14.98;;;6.15;;
37791;SDS011;29527;55.766;37.570;2024-03-06T07:33:50;10.50;;;4.82;;
37791;SDS011;29527;55.766;37.570;2024-03-06T07:36:15;13.27;;;4.63;;
37791;SDS011;29527;55.766;37.570;2024-03-06T07:38:41;10.30;;;3.53;;
37791;SDS011;29527;55.766;37.570;2024-03-06T07:41:07;9.32;;;3.95;;
37791;SDS011;29527;55.766;37.570;2024-03-06T07:43:32;15.07;;;5.70;;
37791;SDS011;29527;55.766;37.570;2024-03-06T07:45:58;13.85;;;4.93;;
37791;SDS011;29527;55.766;37.570;2024-03-06T07:48:23;16.20;;;5.50;;
37791;SDS011;29527;55.766;37.570;2024-03-06T07:50:49;16.95;;;4.60;;
37791;SDS011;29527;55.766;37.570;2024-03-06T07:53:14;18.10;;;4.93;;
37791;SDS011;29527;55.766;37.570;2024-03-06T07:55:41;11.32;;;3.83;;
37791;SDS011;29527;55.766;37.570;2024-03-06T07:58:06;12.73;;;3.97;;
37791;SDS011;29527;55.766;37.570;2024-03-06T08:00:33;13.95;;;5.20;;
37791;SDS011;29527;55.766;37.570;2024-03-06T08:02:59;18.05;;;6.03;;
37791;SDS011;29527;55.766;37.570;2024-03-06T08:05:26;8.63;;;5.00;;
37791;SDS011;29527;55.766;37.570;2024-03-06T08:07:51;18.48;;;5.70;;
37791;SDS011;29527;55.766;37.570;2024-03-06T08:10:16;14.75;;;5.43;;
37791;SDS011;29527;55.766;37.570;2024-03-06T08:12:44;12.32;;;5.32;;
37791;SDS011;29527;55.766;37.570;2024-03-06T08:15:10;16.90;;;4.60;;
37791;SDS011;29527;55.766;37.570;2024-03-06T08:17:38;8.70;;;3.28;;
37791;SDS011;29527;55.766;37.570;2024-03-06T08:20:03;12.65;;;4.45;;
37791;SDS011;29527;55.766;37.570;2024-03-06T08:22:37;13.57;;;3.30;;
37791;SDS011;29527;55.766;37.570;2024-03-06T08:25:07;7.85;;;3.83;;
37791;SDS011;29527;55.766;37.570;2024-03-06T08:27:33;13.50;;;3.45;;
37791;SDS011;29527;55.766;37.570;2024-03-06T08:29:59;7.00;;;3.00;;
37791;SDS011;29527;55.766;37.570;2024-03-06T08:32:24;9.32;;;3.85;;
37791;SDS011;29527;55.766;37.570;2024-03-06T08:34:49;9.07;;;3.80;;
37791;SDS011;29527;55.766;37.570;2024-03-06T08:37:15;15.95;;;4.45;;
37791;SDS011;29527;55.766;37.570;2024-03-06T08:39:40;16.40;;;3.75;;
37791;SDS011;29527;55.766;37.570;2024-03-06T08:42:05;12.18;;;4.43;;
37791;SDS011;29527;55.766;37.570;2024-03-06T08:44:31;13.77;;;4.80;;
37791;SDS011;29527;55.766;37.570;2024-03-06T08:46:56;11.63;;;3.42;;
37791;SDS011;29527;55.766;37.570;2024-03-06T08:49:21;17.85;;;3.40;;
37791;SDS011;29527;55.766;37.570;2024-03-06T08:51:47;11.88;;;3.20;;
37791;SDS011;29527;55.766;37.570;2024-03-06T08:54:13;9.50;;;2.80;;
37791;SDS011;29527;55.766;37.570;2024-03-06T08:56:38;12.68;;;3.33;;
37791;SDS011;29527;55.766;37.570;2024-03-06T08:59:03;5.88;;;2.85;;
37791;SDS011;29527;55.766;37.570;2024-03-06T09:01:29;6.53;;;2.63;;
37791;SDS011;29527;55.766;37.570;2024-03-06T09:03:54;11.13;;;2.70;;
37791;SDS011;29527;55.766;37.570;2024-03-06T09:06:22;6.65;;;2.17;;
37791;SDS011;29527;55.766;37.570;2024-03-06T09:08:48;6.82;;;2.40;;
37791;SDS011;29527;55.766;37.570;2024-03-06T09:11:13;11.10;;;2.38;;
37791;SDS011;29527;55.766;37.570;2024-03-06T09:13:39;5.35;;;1.88;;
37791;SDS011;29527;55.766;37.570;2024-03-06T09:16:04;4.07;;;2.03;;
37791;SDS011;29527;55.766;37.570;2024-03-06T09:18:30;4.05;;;2.33;;
37791;SDS011;29527;55.766;37.570;2024-03-06T09:20:56;4.25;;;1.90;;
37791;SDS011;29527;55.766;37.570;2024-03-06T09:23:21;5.38;;;2.15;;
37791;SDS011;29527;55.766;37.570;2024-03-06T09:25:47;10.43;;;2.13;;
37791;SDS011;29527;55.766;37.570;2024-03-06T09:28:13;8.93;;;2.40;;
37791;SDS011;29527;55.766;37.570;2024-03-06T09:30:39;6.20;;;1.90;;
37791;SDS011;29527;55.766;37.570;2024-03-06T09:33:04;4.78;;;1.75;;
37791;SDS011;29527;55.766;37.570;2024-03-06T09:35:29;5.65;;;2.28;;
37791;SDS011;29527;55.766;37.570;2024-03-06T09:37:55;5.15;;;2.40;;
37791;SDS011;29527;55.766;37.570;2024-03-06T09:40:23;9.70;;;1.98;;
37791;SDS011;29527;55.766;37.570;2024-03-06T09:42:51;9.15;;;2.65;;
37791;SDS011;29527;55.766;37.570;2024-03-06T09:45:17;8.73;;;2.47;;
37791;SDS011;29527;55.766;37.570;2024-03-06T09:47:42;6.63;;;2.70;;
37791;SDS011;29527;55.766;37.570;2024-03-06T09:50:08;8.10;;;2.88;;
37791;SDS011;29527;55.766;37.570;2024-03-06T09:52:34;8.95;;;2.80;;
37791;SDS011;29527;55.766;37.570;2024-03-06T09:55:00;8.75;;;2.70;;
37791;SDS011;29527;55.766;37.570;2024-03-06T09:57:26;10.60;;;2.72;;
37791;SDS011;29527;55.766;37.570;2024-03-06T09:59:51;5.18;;;2.13;;
37791;SDS011;29527;55.766;37.570;2024-03-06T10:02:37;4.60;;;2.33;;
37791;SDS011;29527;55.766;37.570;2024-03-06T10:05:03;7.53;;;2.50;;
37791;SDS011;29527;55.766;37.570;2024-03-06T10:07:29;11.75;;;2.58;;
37791;SDS011;29527;55.766;37.570;2024-03-06T10:09:55;6.65;;;2.50;;
37791;SDS011;29527;55.766;37.570;2024-03-06T10:12:20;7.10;;;2.70;;
37791;SDS011;29527;55.766;37.570;2024-03-06T10:14:52;6.65;;;2.40;;
37791;SDS011;29527;55.766;37.570;2024-03-06T10:17:21;6.70;;;2.50;;
37791;SDS011;29527;55.766;37.570;2024-03-06T10:19:52;7.45;;;2.17;;
37791;SDS011;29527;55.766;37.570;2024-03-06T10:22:20;7.45;;;2.50;;
37791;SDS011;29527;55.766;37.570;2024-03-06T10:24:46;10.07;;;3.35;;
37791;SDS011;29527;55.766;37.570;2024-03-06T10:27:16;8.02;;;2.58;;
37791;SDS011;29527;55.766;37.570;2024-03-06T10:29:42;7.32;;;2.45;;
37791;SDS011;29527;55.766;37.570;2024-03-06T10:32:08;9.93;;;2.90;;
37791;SDS011;29527;55.766;37.570;2024-03-06T10:34:33;7.80;;;2.50;;
37791;SDS011;29527;55.766;37.570;2024-03-06T10:37:02;7.72;;;2.55;;
37791;SDS011;29527;55.766;37.570;2024-03-06T10:39:32;8.75;;;2.30;;
37791;SDS011;29527;55.766;37.570;2024-03-06T10:41:59;9.45;;;2.55;;
37791;SDS011;29527;55.766;37.570;2024-03-06T10:44:27;8.82;;;2.67;;
37791;SDS011;29527;55.766;37.570;2024-03-06T10:46:58;3.72;;;2.38;;
37791;SDS011;29527;55.766;37.570;2024-03-06T10:49:24;10.02;;;2.20;;
37791;SDS011;29527;55.766;37.570;2024-03-06T10:51:50;5.75;;;2.58;;
37791;SDS011;29527;55.766;37.570;2024-03-06T10:54:16;10.25;;;2.80;;
37791;SDS011;29527;55.766;37.570;2024-03-06T10:56:42;8.15;;;3.50;;
37791;SDS011;29527;55.766;37.570;2024-03-06T10:59:09;9.38;;;3.80;;
37791;SDS011;29527;55.766;37.570;2024-03-06T11:01:35;9.20;;;3.55;;
37791;SDS011;29527;55.766;37.570;2024-03-06T11:04:01;6.38;;;2.72;;
37791;SDS011;29527;55.766;37.570;2024-03-06T11:06:28;6.68;;;2.50;;
37791;SDS011;29527;55.766;37.570;2024-03-06T11:08:53;10.00;;;2.88;;
37791;SDS011;29527;55.766;37.570;2024-03-06T11:11:22;10.18;;;3.25;;
37791;SDS011;29527;55.766;37.570;2024-03-06T11:13:49;6.03;;;3.03;;
37791;SDS011;29527;55.766;37.570;2024-03-06T11:16:14;7.93;;;3.70;;
37791;SDS011;29527;55.766;37.570;2024-03-06T11:23:33;5.72;;;2.75;;
37791;SDS011;29527;55.766;37.570;2024-03-06T11:26:05;7.63;;;3.03;;
37791;SDS011;29527;55.766;37.570;2024-03-06T11:28:32;7.75;;;2.90;;
37791;SDS011;29527;55.766;37.570;2024-03-06T11:33:43;6.25;;;2.42;;
37791;SDS011;29527;55.766;37.570;2024-03-06T11:36:13;5.80;;;2.17;;
37791;SDS011;29527;55.766;37.570;2024-03-06T11:38:40;6.85;;;2.50;;
37791;SDS011;29527;55.766;37.570;2024-03-06T11:41:06;6.03;;;2.40;;
37791;SDS011;29527;55.766;37.570;2024-03-06T11:43:41;7.88;;;2.00;;
37791;SDS011;29527;55.766;37.570;2024-03-06T11:46:07;6.80;;;2.40;;
37791;SDS011;29527;55.766;37.570;2024-03-06T11:48:33;4.40;;;2.10;;
37791;SDS011;29527;55.766;37.570;2024-03-06T11:50:59;13.43;;;2.92;;
37791;SDS011;29527;55.766;37.570;2024-03-06T11:53:28;10.73;;;4.05;;
37791;SDS011;29527;55.766;37.570;2024-03-06T11:55:55;9.50;;;2.67;;
37791;SDS011;29527;55.766;37.570;2024-03-06T11:58:22;7.47;;;2.63;;
37791;SDS011;29527;55.766;37.570;2024-03-06T12:00:47;7.20;;;2.72;;
37791;SDS011;29527;55.766;37.570;2024-03-06T12:03:13;9.43;;;3.55;;
37791;SDS011;29527;55.766;37.570;2024-03-06T12:05:38;5.97;;;2.58;;
37791;SDS011;29527;55.766;37.570;2024-03-06T12:08:06;6.90;;;2.50;;
37791;SDS011;29527;55.766;37.570;2024-03-06T12:10:36;10.48;;;2.90;;
37791;SDS011;29527;55.766;37.570;2024-03-06T12:13:02;10.75;;;2.78;;
37791;SDS011;29527;55.766;37.570;2024-03-06T12:15:28;12.98;;;2.80;;
37791;SDS011;29527;55.766;37.570;2024-03-06T12:17:53;10.68;;;2.92;;
37791;SDS011;29527;55.766;37.570;2024-03-06T12:20:19;8.25;;;2.35;;
37791;SDS011;29527;55.766;37.570;2024-03-06T12:22:48;9.68;;;2.67;;
37791;SDS011;29527;55.766;37.570;2024-03-06T12:25:19;9.20;;;2.70;;
37791;SDS011;29527;55.766;37.570;2024-03-06T12:27:48;8.32;;;2.63;;
37791;SDS011;29527;55.766;37.570;2024-03-06T12:30:17;9.32;;;2.70;;
37791;SDS011;29527;55.766;37.570;2024-03-06T12:32:43;12.40;;;2.97;;
37791;SDS011;29527;55.766;37.570;2024-03-06T12:35:09;10.20;;;3.03;;
37791;SDS011;29527;55.766;37.570;2024-03-06T12:37:35;5.82;;;2.67;;
37791;SDS011;29527;55.766;37.570;2024-03-06T12:40:00;10.32;;;3.30;;
37791;SDS011;29527;55.766;37.570;2024-03-06T12:42:27;12.68;;;3.45;;
37791;SDS011;29527;55.766;37.570;2024-03-06T12:44:53;11.25;;;3.40;;
37791;SDS011;29527;55.766;37.570;2024-03-06T12:47:19;7.43;;;3.33;;
37791;SDS011;29527;55.766;37.570;2024-03-06T12:49:45;8.88;;;3.58;;
37791;SDS011;29527;55.766;37.570;2024-03-06T12:52:10;5.15;;;3.05;;
37791;SDS011;29527;55.766;37.570;2024-03-06T12:54:36;11.63;;;3.38;;
37791;SDS011;29527;55.766;37.570;2024-03-06T12:57:01;13.20;;;3.70;;
37791;SDS011;29527;55.766;37.570;2024-03-06T12:59:28;9.70;;;3.00;;
37791;SDS011;29527;55.766;37.570;2024-03-06T13:01:53;14.60;;;3.85;;
37791;SDS011;29527;55.766;37.570;2024-03-06T13:04:19;12.65;;;3.47;;
37791;SDS011;29527;55.766;37.570;2024-03-06T13:06:44;8.10;;;2.90;;
37791;SDS011;29527;55.766;37.570;2024-03-06T13:09:10;7.35;;;2.85;;
37791;SDS011;29527;55.766;37.570;2024-03-06T13:11:36;7.03;;;2.47;;
37791;SDS011;29527;55.766;37.570;2024-03-06T13:14:01;8.52;;;3.30;;
37791;SDS011;29527;55.766;37.570;2024-03-06T13:16:26;11.68;;;2.90;;
37791;SDS011;29527;55.766;37.570;2024-03-06T13:18:52;7.00;;;2.80;;
37791;SDS011;29527;55.766;37.570;2024-03-06T13:21:20;12.18;;;3.75;;
37791;SDS011;29527;55.766;37.570;2024-03-06T13:23:45;9.00;;;3.28;;
37791;SDS011;29527;55.766;37.570;2024-03-06T13:26:10;11.35;;;3.80;;
37791;SDS011;29527;55.766;37.570;2024-03-06T13:28:38;13.75;;;3.78;;
37791;SDS011;29527;55.766;37.570;2024-03-06T13:31:03;7.93;;;3.30;;
37791;SDS011;29527;55.766;37.570;2024-03-06T13:33:31;13.52;;;3.08;;
37791;SDS011;29527;55.766;37.570;2024-03-06T13:35:57;8.75;;;2.80;;
37791;SDS011;29527;55.766;37.570;2024-03-06T13:38:22;8.45;;;2.97;;
37791;SDS011;29527;55.766;37.570;2024-03-06T13:40:47;10.25;;;3.10;;
37791;SDS011;29527;55.766;37.570;2024-03-06T13:43:13;12.48;;;3.28;;
37791;SDS011;29527;55.766;37.570;2024-03-06T13:45:39;10.15;;;3.10;;
37791;SDS011;29527;55.766;37.570;2024-03-06T13:48:14;8.70;;;2.63;;
37791;SDS011;29527;55.766;37.570;2024-03-06T13:50:42;12.85;;;2.85;;
37791;SDS011;29527;55.766;37.570;2024-03-06T13:53:08;7.32;;;2.85;;
37791;SDS011;29527;55.766;37.570;2024-03-06T13:55:33;9.45;;;3.20;;
37791;SDS011;29527;55.766;37.570;2024-03-06T13:57:59;6.80;;;2.70;;
37791;SDS011;29527;55.766;37.570;2024-03-06T14:00:25;11.23;;;2.85;;
37791;SDS011;29527;55.766;37.570;2024-03-06T14:02:50;6.40;;;2.83;;
37791;SDS011;29527;55.766;37.570;2024-03-06T14:05:16;10.95;;;3.17;;
37791;SDS011;29527;55.766;37.570;2024-03-06T14:07:41;10.07;;;2.72;;
37791;SDS011;29527;55.766;37.570;2024-03-06T14:10:07;10.10;;;3.30;;
37791;SDS011;29527;55.766;37.570;2024-03-06T14:12:36;8.63;;;2.83;;
37791;SDS011;29527;55.766;37.570;2024-03-06T14:15:02;8.57;;;3.70;;
37791;SDS011;29527;55.766;37.570;2024-03-06T14:17:30;9.15;;;2.63;;
37791;SDS011;29527;55.766;37.570;2024-03-06T14:19:55;6.55;;;2.42;;
37791;SDS011;29527;55.766;37.570;2024-03-06T14:22:20;8.93;;;2.20;;
37791;SDS011;29527;55.766;37.570;2024-03-06T14:24:46;5.30;;;2.20;;
37791;SDS011;29527;55.766;37.570;2024-03-06T14:27:11;6.32;;;2.30;;
37791;SDS011;29527;55.766;37.570;2024-03-06T14:29:36;11.15;;;2.33;;
37791;SDS011;29527;55.766;37.570;2024-03-06T14:32:02;11.43;;;3.13;;